Time,TemperatureF,DewpointF,PressureIn,WindDirection,WindDirectionDegrees,WindSpeedMPH,WindSpeedGustMPH,Humidity,HourlyPrecipIn,Conditions,Clouds,dailyrainin,SoftwareType,DateUTC
2011-04-26 00:05:00,48.0,37.5,29.69,SE,135,0.7,0.7,67,0.00,,,0.22,open2300-1.11,2011-04-26 06:05:00,
2011-04-26 00:15:00,48.0,37.5,29.69,ENE,67,0.0,1.3,67,0.00,,,0.22,open2300-1.11,2011-04-26 06:15:00,
2011-04-26 00:25:00,48.0,37.5,29.69,ESE,112,0.0,0.0,67,0.00,,,0.22,open2300-1.11,2011-04-26 06:25:00,
2011-04-26 00:35:00,48.0,37.5,29.67,ENE,67,4.0,4.0,67,0.00,,,0.22,open2300-1.11,2011-04-26 06:35:00,
2011-04-26 00:45:00,47.8,37.7,29.68,ESE,112,0.0,4.0,68,0.00,,,0.22,open2300-1.11,2011-04-26 06:45:00,
2011-04-26 00:55:00,47.8,37.4,29.69,SE,135,0.0,0.0,67,0.00,,,0.22,open2300-1.11,2011-04-26 06:55:00,
2011-04-26 01:05:00,47.8,37.4,29.68,SE,135,0.0,0.0,67,0.00,,,0.16,open2300-1.11,2011-04-26 07:05:00,
2011-04-26 01:15:00,47.8,37.4,29.68,East,90,0.0,1.3,67,0.00,,,0.16,open2300-1.11,2011-04-26 07:15:00,
2011-04-26 01:25:00,47.8,37.4,29.68,SSE,157,2.7,4.0,67,0.00,,,0.16,open2300-1.11,2011-04-26 07:25:00,
2011-04-26 01:35:00,47.8,37.7,29.68,NE,45,0.0,2.7,68,0.00,,,0.16,open2300-1.11,2011-04-26 07:35:00,
2011-04-26 01:45:00,47.8,37.7,29.69,NE,45,0.0,0.0,68,0.00,,,0.16,open2300-1.11,2011-04-26 07:45:00,
2011-04-26 01:55:00,47.8,37.7,29.69,ESE,112,0.0,0.0,68,0.00,,,0.16,open2300-1.11,2011-04-26 07:55:00,
2011-04-26 02:05:00,47.5,37.8,29.70,North,0,0.0,0.0,69,0.00,,,0.08,open2300-1.11,2011-04-26 08:05:00,
2011-04-26 02:15:00,47.1,37.5,29.69,NE,45,2.0,2.0,69,0.00,,,0.08,open2300-1.11,2011-04-26 08:15:00,
2011-04-26 02:25:00,46.6,37.0,29.68,East,90,0.0,2.0,69,0.00,,,0.08,open2300-1.11,2011-04-26 08:25:00,
2011-04-26 02:35:00,46.2,36.2,29.68,WSW,247,2.2,2.7,68,0.00,,,0.08,open2300-1.11,2011-04-26 08:35:00,
2011-04-26 02:45:00,46.0,36.5,29.68,North,0,0.0,2.2,69,0.00,,,0.08,open2300-1.11,2011-04-26 08:45:00,
2011-04-26 02:55:00,45.7,36.8,29.68,NE,45,0.0,1.3,71,0.00,,,0.08,open2300-1.11,2011-04-26 08:55:00,
2011-04-26 03:05:00,45.3,36.5,29.68,NNE,22,0.0,0.0,71,0.00,,,0.00,open2300-1.11,2011-04-26 09:05:00,
2011-04-26 03:15:00,45.3,36.5,29.68,ESE,112,0.0,0.0,71,0.00,,,0.00,open2300-1.11,2011-04-26 09:15:00,
2011-04-26 03:25:00,45.1,36.6,29.67,ESE,112,0.0,0.0,72,0.00,,,0.00,open2300-1.11,2011-04-26 09:25:00,
2011-04-26 03:35:00,45.0,36.8,29.68,ENE,67,0.0,0.0,73,0.02,,,0.02,open2300-1.11,2011-04-26 09:35:00,
2011-04-26 03:45:00,45.0,37.2,29.66,East,90,0.0,0.0,74,0.02,,,0.02,open2300-1.11,2011-04-26 09:45:00,
2011-04-26 03:55:00,44.8,37.0,29.67,ENE,67,0.0,0.0,74,0.02,,,0.02,open2300-1.11,2011-04-26 09:55:00,
2011-04-26 04:05:00,44.4,37.0,29.67,East,90,0.0,1.3,75,0.02,,,0.02,open2300-1.11,2011-04-26 10:05:00,
2011-04-26 04:15:00,44.4,37.3,29.66,ESE,112,0.0,0.0,76,0.04,,,0.04,open2300-1.11,2011-04-26 10:15:00,
2011-04-26 04:25:00,44.2,37.1,29.66,ESE,112,0.0,0.0,76,0.04,,,0.04,open2300-1.11,2011-04-26 10:25:00,
2011-04-26 04:35:00,43.9,37.1,29.66,East,90,0.0,3.8,77,0.02,,,0.04,open2300-1.11,2011-04-26 10:35:00,
2011-04-26 04:45:00,43.5,36.8,29.65,SSE,157,0.0,0.0,77,0.02,,,0.04,open2300-1.11,2011-04-26 10:45:00,
2011-04-26 04:55:00,43.5,36.8,29.65,ENE,67,0.0,2.5,77,0.02,,,0.04,open2300-1.11,2011-04-26 10:55:00,
2011-04-26 05:05:00,43.2,36.7,29.63,East,90,0.9,0.9,78,0.02,,,0.04,open2300-1.11,2011-04-26 11:05:00,
2011-04-26 05:15:00,43.0,36.5,29.63,East,90,2.7,4.2,78,0.00,,,0.04,open2300-1.11,2011-04-26 11:15:00,
2011-04-26 05:25:00,43.0,36.5,29.63,East,90,0.0,2.9,78,0.00,,,0.04,open2300-1.11,2011-04-26 11:25:00,
2011-04-26 05:35:00,42.8,36.4,29.62,SE,135,0.0,2.0,78,0.00,,,0.04,open2300-1.11,2011-04-26 11:35:00,
2011-04-26 05:45:00,42.6,36.2,29.63,East,90,0.0,2.9,78,0.00,,,0.04,open2300-1.11,2011-04-26 11:45:00,
2011-04-26 05:55:00,42.6,36.2,29.63,NE,45,0.9,1.3,78,0.00,,,0.04,open2300-1.11,2011-04-26 11:55:00,
2011-04-26 06:05:00,42.6,36.5,29.63,NE,45,0.0,0.9,79,0.00,,,0.04,open2300-1.11,2011-04-26 12:05:00,
2011-04-26 06:15:00,42.8,36.7,29.63,NE,45,0.0,0.0,79,0.00,,,0.04,open2300-1.11,2011-04-26 12:15:00,
2011-04-26 06:25:00,42.6,36.2,29.63,NE,45,0.0,0.0,78,0.00,,,0.04,open2300-1.11,2011-04-26 12:25:00,
2011-04-26 06:35:00,42.6,36.2,29.62,NE,45,0.0,0.0,78,0.00,,,0.04,open2300-1.11,2011-04-26 12:35:00,
2011-04-26 06:45:00,42.4,36.0,29.62,NE,45,0.0,0.0,78,0.00,,,0.04,open2300-1.11,2011-04-26 12:45:00,
2011-04-26 06:55:00,42.1,35.7,29.63,NE,45,0.0,0.0,78,0.00,,,0.04,open2300-1.11,2011-04-26 12:55:00,
2011-04-26 07:05:00,42.1,35.7,29.64,NE,45,0.0,0.0,78,0.00,,,0.04,open2300-1.11,2011-04-26 13:05:00,
2011-04-26 07:15:00,42.1,36.0,29.65,NW,315,0.0,0.0,79,0.00,,,0.04,open2300-1.11,2011-04-26 13:15:00,
2011-04-26 07:25:00,42.4,36.7,29.66,WNW,292,0.0,0.0,80,0.00,,,0.04,open2300-1.11,2011-04-26 13:25:00,
2011-04-26 07:35:00,42.6,36.9,29.67,WNW,292,0.0,0.0,80,0.00,,,0.04,open2300-1.11,2011-04-26 13:35:00,
2011-04-26 07:45:00,42.6,36.9,29.66,NNW,337,1.3,1.3,80,0.00,,,0.04,open2300-1.11,2011-04-26 13:45:00,
2011-04-26 07:55:00,42.6,36.5,29.67,NW,315,0.0,3.1,79,0.00,,,0.04,open2300-1.11,2011-04-26 13:55:00,
2011-04-26 08:05:00,42.6,36.2,29.67,West,270,0.0,0.0,78,0.00,,,0.04,open2300-1.11,2011-04-26 14:05:00,
2011-04-26 08:15:00,43.0,36.5,29.67,West,270,0.0,0.0,78,0.00,,,0.04,open2300-1.11,2011-04-26 14:15:00,
2011-04-26 08:25:00,43.2,36.7,29.67,NW,315,0.0,0.0,78,0.00,,,0.04,open2300-1.11,2011-04-26 14:25:00,
2011-04-26 08:35:00,43.5,37.1,29.67,WSW,247,0.0,0.0,78,0.00,,,0.04,open2300-1.11,2011-04-26 14:35:00,
2011-04-26 08:45:00,43.9,37.4,29.66,WNW,292,0.0,0.0,78,0.00,,,0.04,open2300-1.11,2011-04-26 14:45:00,
2011-04-26 08:55:00,44.2,37.5,29.66,WNW,292,0.0,2.0,77,0.00,,,0.04,open2300-1.11,2011-04-26 14:55:00,
2011-04-26 09:05:00,44.4,37.6,29.67,WNW,292,0.0,0.0,77,0.00,,,0.04,open2300-1.11,2011-04-26 15:05:00,
2011-04-26 09:15:00,44.8,37.7,29.66,WNW,292,0.0,0.0,76,0.00,,,0.04,open2300-1.11,2011-04-26 15:15:00,
2011-04-26 09:25:00,45.0,37.5,29.67,WNW,292,0.0,2.0,75,0.00,,,0.04,open2300-1.11,2011-04-26 15:25:00,
2011-04-26 09:35:00,45.3,37.8,29.67,WNW,292,1.8,1.8,75,0.00,,,0.04,open2300-1.11,2011-04-26 15:35:00,
2011-04-26 09:45:00,45.3,37.2,29.68,North,0,0.0,5.8,73,0.00,,,0.04,open2300-1.11,2011-04-26 15:45:00,
2011-04-26 09:55:00,45.7,37.9,29.68,NNW,337,0.0,0.0,74,0.00,,,0.04,open2300-1.11,2011-04-26 15:55:00,
2011-04-26 10:05:00,46.2,38.4,29.68,NNW,337,0.0,2.2,74,0.00,,,0.04,open2300-1.11,2011-04-26 16:05:00,
2011-04-26 10:15:00,46.9,38.7,29.67,WNW,292,0.0,4.0,73,0.00,,,0.04,open2300-1.11,2011-04-26 16:15:00,
2011-04-26 10:25:00,47.5,38.9,29.68,West,270,0.7,4.0,72,0.00,,,0.04,open2300-1.11,2011-04-26 16:25:00,
2011-04-26 10:35:00,48.6,39.5,29.68,ENE,67,1.1,1.1,71,0.00,,,0.04,open2300-1.11,2011-04-26 16:35:00,
2011-04-26 10:45:00,48.9,38.8,29.68,North,0,0.0,3.1,68,0.00,,,0.04,open2300-1.11,2011-04-26 16:45:00,
2011-04-26 10:55:00,49.6,39.1,29.68,WNW,292,2.7,2.7,67,0.00,,,0.04,open2300-1.11,2011-04-26 16:55:00,
2011-04-26 11:05:00,49.1,37.0,29.68,North,0,2.9,3.1,63,0.00,,,0.04,open2300-1.11,2011-04-26 17:05:00,
2011-04-26 11:15:00,48.0,36.0,29.70,WNW,292,0.0,2.9,63,0.00,,,0.04,open2300-1.11,2011-04-26 17:15:00,
2011-04-26 11:25:00,46.8,35.6,29.69,WNW,292,0.0,0.0,65,0.00,,,0.04,open2300-1.11,2011-04-26 17:25:00,
2011-04-26 11:35:00,46.0,36.1,29.69,WNW,292,0.0,0.0,68,0.00,,,0.04,open2300-1.11,2011-04-26 17:35:00,
2011-04-26 11:45:00,46.0,36.5,29.69,NNE,22,0.0,0.0,69,0.02,,,0.06,open2300-1.11,2011-04-26 17:45:00,
2011-04-26 11:55:00,46.0,37.2,29.68,NNE,22,0.0,0.0,71,0.02,,,0.06,open2300-1.11,2011-04-26 17:55:00,
2011-04-26 12:05:00,46.2,37.0,29.68,North,0,0.0,2.5,70,0.02,,,0.06,open2300-1.11,2011-04-26 18:05:00,
2011-04-26 12:15:00,45.7,35.7,29.69,NNW,337,0.0,3.8,68,0.02,,,0.06,open2300-1.11,2011-04-26 18:15:00,
2011-04-26 12:25:00,45.3,36.1,29.68,NNE,22,0.0,0.0,70,0.04,,,0.08,open2300-1.11,2011-04-26 18:25:00,
2011-04-26 12:35:00,46.2,37.7,29.68,NNE,22,2.9,2.9,72,0.04,,,0.08,open2300-1.11,2011-04-26 18:35:00,
2011-04-26 12:45:00,47.1,38.5,29.68,NW,315,0.0,3.8,72,0.02,,,0.08,open2300-1.11,2011-04-26 18:45:00,
2011-04-26 12:55:00,47.8,38.9,29.68,NW,315,0.0,1.1,71,0.02,,,0.08,open2300-1.11,2011-04-26 18:55:00,
2011-04-26 13:05:00,48.7,39.4,29.67,NNW,337,0.0,2.0,70,0.02,,,0.08,open2300-1.11,2011-04-26 19:05:00,
2011-04-26 13:15:00,49.6,39.5,29.66,WSW,247,1.8,1.8,68,0.02,,,0.08,open2300-1.11,2011-04-26 19:15:00,
2011-04-26 13:25:00,50.5,37.6,29.66,WNW,292,1.8,3.1,61,0.00,,,0.08,open2300-1.11,2011-04-26 19:25:00,
2011-04-26 13:35:00,51.1,36.8,29.67,NW,315,10.3,10.3,58,0.00,,,0.08,open2300-1.11,2011-04-26 19:35:00,
2011-04-26 13:45:00,50.7,35.1,29.67,WSW,247,4.2,10.3,55,0.00,,,0.08,open2300-1.11,2011-04-26 19:45:00,
2011-04-26 13:55:00,51.3,35.6,29.68,NW,315,0.0,6.9,55,0.00,,,0.08,open2300-1.11,2011-04-26 19:55:00,
2011-04-26 14:05:00,52.5,35.8,29.68,West,270,0.0,7.6,53,0.00,,,0.08,open2300-1.11,2011-04-26 20:05:00,
2011-04-26 14:15:00,52.3,32.0,29.68,NNW,337,0.9,10.7,46,0.00,,,0.08,open2300-1.11,2011-04-26 20:15:00,
2011-04-26 14:25:00,52.2,31.9,29.68,NW,315,4.5,6.9,46,0.00,,,0.08,open2300-1.11,2011-04-26 20:25:00,
2011-04-26 14:35:00,52.3,30.4,29.68,West,270,0.0,11.4,43,0.00,,,0.08,open2300-1.11,2011-04-26 20:35:00,
2011-04-26 14:45:00,53.2,32.3,29.68,NW,315,5.6,7.8,45,0.00,,,0.08,open2300-1.11,2011-04-26 20:45:00,
2011-04-26 14:55:00,53.8,32.8,29.68,West,270,5.4,5.6,45,0.00,,,0.08,open2300-1.11,2011-04-26 20:55:00,
2011-04-26 15:05:00,53.4,31.9,29.68,West,270,9.8,15.4,44,0.00,,,0.08,open2300-1.11,2011-04-26 21:05:00,
2011-04-26 15:15:00,53.4,30.2,29.68,WNW,292,3.1,9.8,41,0.00,,,0.08,open2300-1.11,2011-04-26 21:15:00,
2011-04-26 15:25:00,53.8,30.0,29.68,WNW,292,6.9,6.9,40,0.00,,,0.08,open2300-1.11,2011-04-26 21:25:00,
2011-04-26 15:35:00,53.6,27.8,29.69,NNE,22,4.5,11.2,37,0.00,,,0.08,open2300-1.11,2011-04-26 21:35:00,
2011-04-26 15:45:00,54.0,31.8,29.69,North,0,0.0,4.7,43,0.00,,,0.08,open2300-1.11,2011-04-26 21:45:00,
2011-04-26 15:55:00,54.3,32.7,29.69,North,0,0.0,1.8,44,0.00,,,0.08,open2300-1.11,2011-04-26 21:55:00,
2011-04-26 16:05:00,54.0,32.4,29.70,WSW,247,6.5,6.5,44,0.00,,,0.08,open2300-1.11,2011-04-26 22:05:00,
2011-04-26 16:15:00,53.8,32.2,29.70,NW,315,3.6,6.5,44,0.00,,,0.08,open2300-1.11,2011-04-26 22:15:00,
2011-04-26 16:25:00,53.4,31.4,29.70,NNW,337,4.2,8.5,43,0.00,,,0.08,open2300-1.11,2011-04-26 22:25:00,
2011-04-26 16:35:00,52.5,30.0,29.70,NNW,337,5.1,5.1,42,0.00,,,0.08,open2300-1.11,2011-04-26 22:35:00,
2011-04-26 16:45:00,52.9,31.4,29.70,NW,315,6.0,6.0,44,0.00,,,0.08,open2300-1.11,2011-04-26 22:45:00,
2011-04-26 16:55:00,53.4,31.4,29.70,WNW,292,0.0,6.0,43,0.00,,,0.08,open2300-1.11,2011-04-26 22:55:00,
2011-04-26 17:05:00,54.0,30.2,29.70,WNW,292,4.7,9.2,40,0.00,,,0.08,open2300-1.11,2011-04-26 23:05:00,
2011-04-26 17:15:00,53.6,29.8,29.71,WNW,292,6.7,6.7,40,0.00,,,0.08,open2300-1.11,2011-04-26 23:15:00,
2011-04-26 17:25:00,54.3,29.1,29.72,West,270,2.9,6.7,38,0.00,,,0.08,open2300-1.11,2011-04-26 23:25:00,
2011-04-26 17:35:00,53.4,27.6,29.73,North,0,9.2,9.2,37,0.00,,,0.08,open2300-1.11,2011-04-26 23:35:00,
2011-04-26 17:45:00,52.0,27.0,29.72,West,270,4.0,9.2,38,0.00,,,0.08,open2300-1.11,2011-04-26 23:45:00,
2011-04-26 17:55:00,51.4,25.2,29.73,WSW,247,0.0,10.1,36,0.00,,,0.08,open2300-1.11,2011-04-26 23:55:00,
2011-04-26 18:05:00,50.2,24.7,29.74,NW,315,4.5,6.7,37,0.00,,,0.08,open2300-1.11,2011-04-27 00:05:00,
2011-04-26 18:15:00,49.8,25.8,29.74,NNW,337,0.0,4.5,39,0.00,,,0.08,open2300-1.11,2011-04-27 00:15:00,
2011-04-26 18:25:00,49.3,26.0,29.75,WNW,292,5.4,5.4,40,0.00,,,0.08,open2300-1.11,2011-04-27 00:25:00,
2011-04-26 18:35:00,48.7,26.0,29.75,NW,315,5.4,8.5,41,0.00,,,0.08,open2300-1.11,2011-04-27 00:35:00,
2011-04-26 18:45:00,48.2,25.5,29.76,NNE,22,0.0,5.4,41,0.00,,,0.08,open2300-1.11,2011-04-27 00:45:00,
2011-04-26 18:55:00,47.8,25.2,29.76,NW,315,4.7,4.7,41,0.00,,,0.08,open2300-1.11,2011-04-27 00:55:00,
2011-04-26 19:05:00,47.3,25.8,29.76,NW,315,4.7,4.7,43,0.00,,,0.08,open2300-1.11,2011-04-27 01:05:00,
2011-04-26 19:15:00,47.1,25.1,29.77,NNW,337,5.6,5.6,42,0.00,,,0.08,open2300-1.11,2011-04-27 01:15:00,
2011-04-26 19:25:00,46.8,25.3,29.77,NNE,22,0.0,5.6,43,0.00,,,0.08,open2300-1.11,2011-04-27 01:25:00,
2011-04-26 19:35:00,46.2,24.8,29.78,NW,315,0.0,6.9,43,0.00,,,0.08,open2300-1.11,2011-04-27 01:35:00,
2011-04-26 19:45:00,45.7,24.3,29.79,NW,315,4.7,9.4,43,0.00,,,0.08,open2300-1.11,2011-04-27 01:45:00,
2011-04-26 19:55:00,45.3,23.5,29.79,NNE,22,0.0,4.7,42,0.00,,,0.08,open2300-1.11,2011-04-27 01:55:00,
2011-04-26 20:05:00,44.8,23.0,29.79,NW,315,0.0,2.2,42,0.00,,,0.08,open2300-1.11,2011-04-27 02:05:00,
2011-04-26 20:15:00,44.4,22.7,29.80,NW,315,0.0,2.5,42,0.00,,,0.08,open2300-1.11,2011-04-27 02:15:00,
2011-04-26 20:25:00,43.9,22.7,29.80,NNW,337,1.3,6.0,43,0.00,,,0.08,open2300-1.11,2011-04-27 02:25:00,
2011-04-26 20:35:00,43.5,22.4,29.81,WNW,292,1.8,3.4,43,0.00,,,0.08,open2300-1.11,2011-04-27 02:35:00,
2011-04-26 20:45:00,43.0,22.4,29.81,NW,315,3.4,4.9,44,0.00,,,0.08,open2300-1.11,2011-04-27 02:45:00,
2011-04-26 20:55:00,42.4,22.5,29.82,West,270,1.1,3.4,45,0.00,,,0.08,open2300-1.11,2011-04-27 02:55:00,
2011-04-26 21:05:00,42.1,22.1,29.83,NW,315,6.7,6.7,45,0.00,,,0.08,open2300-1.11,2011-04-27 03:05:00,
2011-04-26 21:15:00,41.7,21.2,29.83,NW,315,0.0,6.7,44,0.00,,,0.08,open2300-1.11,2011-04-27 03:15:00,
2011-04-26 21:25:00,41.5,21.6,29.84,NNW,337,0.0,5.6,45,0.00,,,0.08,open2300-1.11,2011-04-27 03:25:00,
2011-04-26 21:35:00,41.4,21.5,29.85,NW,315,0.0,6.7,45,0.00,,,0.08,open2300-1.11,2011-04-27 03:35:00,
2011-04-26 21:45:00,41.2,21.8,29.85,NW,315,0.0,5.4,46,0.00,,,0.08,open2300-1.11,2011-04-27 03:45:00,
2011-04-26 21:55:00,41.0,21.6,29.86,WNW,292,0.0,2.5,46,0.00,,,0.08,open2300-1.11,2011-04-27 03:55:00,
2011-04-26 22:05:00,40.8,21.0,29.86,North,0,0.0,6.3,45,0.00,,,0.08,open2300-1.11,2011-04-27 04:05:00,
2011-04-26 22:15:00,40.5,20.6,29.86,WNW,292,0.0,4.7,45,0.00,,,0.08,open2300-1.11,2011-04-27 04:15:00,
2011-04-26 22:25:00,40.1,20.3,29.86,NNW,337,0.0,0.0,45,0.00,,,0.08,open2300-1.11,2011-04-27 04:25:00,
2011-04-26 22:35:00,39.9,20.1,29.87,WNW,292,0.9,3.1,45,0.00,,,0.08,open2300-1.11,2011-04-27 04:35:00,
2011-04-26 22:45:00,39.7,20.0,29.87,West,270,1.6,6.0,45,0.00,,,0.08,open2300-1.11,2011-04-27 04:45:00,
2011-04-26 22:55:00,39.6,20.3,29.87,NW,315,0.0,1.6,46,0.00,,,0.08,open2300-1.11,2011-04-27 04:55:00,
2011-04-26 23:05:00,39.4,20.2,29.88,NW,315,0.0,2.2,46,0.00,,,0.08,open2300-1.11,2011-04-27 05:05:00,
2011-04-26 23:15:00,39.2,20.0,29.88,NNW,337,0.0,1.6,46,0.00,,,0.08,open2300-1.11,2011-04-27 05:15:00,
2011-04-26 23:25:00,39.0,19.9,29.88,NW,315,0.0,2.5,46,0.00,,,0.08,open2300-1.11,2011-04-27 05:25:00,
2011-04-26 23:35:00,39.0,19.9,29.88,North,0,0.0,1.3,46,0.00,,,0.08,open2300-1.11,2011-04-27 05:35:00,
2011-04-26 23:45:00,38.8,20.2,29.88,WNW,292,0.0,4.0,47,0.00,,,0.08,open2300-1.11,2011-04-27 05:45:00,
2011-04-26 23:55:00,38.5,19.9,29.89,WNW,292,0.0,4.7,47,0.00,,,0.08,open2300-1.11,2011-04-27 05:55:00,